sensor_id;sensor_type;location;lat;lon;timestamp;pressure;altitude;pressure_sealevel;temperature
47484;BMP280;54076;50.322;18.650;2022-08-01T00:02:16;98938.25;;;15.18
47484;BMP280;54076;50.322;18.650;2022-08-01T00:07:17;98941.29;;;15.02
47484;BMP280;54076;50.322;18.650;2022-08-01T00:12:18;98934.15;;;14.98
47484;BMP280;54076;50.322;18.650;2022-08-01T00:17:19;98929.76;;;14.84
47484;BMP280;54076;50.322;18.650;2022-08-01T00:22:20;98927.42;;;14.81
47484;BMP280;54076;50.322;18.650;2022-08-01T00:27:21;98927.83;;;14.75
47484;BMP280;54076;50.322;18.650;2022-08-01T00:32:22;98923.97;;;14.74
47484;BMP280;54076;50.322;18.650;2022-08-01T00:37:23;98917.92;;;14.70
47484;BMP280;54076;50.322;18.650;2022-08-01T00:42:24;98921.66;;;14.76
47484;BMP280;54076;50.322;18.650;2022-08-01T00:47:25;98917.58;;;14.67
47484;BMP280;54076;50.322;18.650;2022-08-01T00:52:26;98917.97;;;14.69
47484;BMP280;54076;50.322;18.650;2022-08-01T00:57:28;98915.41;;;14.66
47484;BMP280;54076;50.322;18.650;2022-08-01T01:02:29;98911.62;;;14.59
47484;BMP280;54076;50.322;18.650;2022-08-01T01:07:52;98912.17;;;14.62
47484;BMP280;54076;50.322;18.650;2022-08-01T01:13:05;98906.42;;;14.59
47484;BMP280;54076;50.322;18.650;2022-08-01T01:18:14;98908.54;;;14.56
47484;BMP280;54076;50.322;18.650;2022-08-01T01:23:53;98905.14;;;14.58
47484;BMP280;54076;50.322;18.650;2022-08-01T01:34:20;98899.34;;;14.42
47484;BMP280;54076;50.322;18.650;2022-08-01T01:39:22;98892.31;;;14.37
47484;BMP280;54076;50.322;18.650;2022-08-01T01:44:26;98892.66;;;14.54
47484;BMP280;54076;50.322;18.650;2022-08-01T01:49:28;98897.20;;;14.49
47484;BMP280;54076;50.322;18.650;2022-08-01T01:54:40;98896.79;;;14.44
47484;BMP280;54076;50.322;18.650;2022-08-01T01:59:43;98897.92;;;14.34
47484;BMP280;54076;50.322;18.650;2022-08-01T02:04:46;98901.79;;;14.19
47484;BMP280;54076;50.322;18.650;2022-08-01T02:09:48;98902.94;;;14.14
47484;BMP280;54076;50.322;18.650;2022-08-01T02:14:52;98903.61;;;14.06
47484;BMP280;54076;50.322;18.650;2022-08-01T02:19:54;98901.00;;;14.09
47484;BMP280;54076;50.322;18.650;2022-08-01T02:25:17;98897.61;;;14.12
47484;BMP280;54076;50.322;18.650;2022-08-01T02:30:21;98901.87;;;14.19
47484;BMP280;54076;50.322;18.650;2022-08-01T02:35:31;98905.15;;;14.23
47484;BMP280;54076;50.322;18.650;2022-08-01T02:40:38;98899.23;;;14.28
47484;BMP280;54076;50.322;18.650;2022-08-01T02:45:48;98901.08;;;14.40
47484;BMP280;54076;50.322;18.650;2022-08-01T02:50:52;98897.94;;;14.30
47484;BMP280;54076;50.322;18.650;2022-08-01T02:55:55;98896.14;;;14.26
47484;BMP280;54076;50.322;18.650;2022-08-01T03:00:57;98901.05;;;14.18
47484;BMP280;54076;50.322;18.650;2022-08-01T03:05:59;98900.88;;;14.11
47484;BMP280;54076;50.322;18.650;2022-08-01T03:11:03;98905.64;;;14.10
47484;BMP280;54076;50.322;18.650;2022-08-01T03:16:05;98912.94;;;14.10
47484;BMP280;54076;50.322;18.650;2022-08-01T03:21:06;98901.92;;;14.05
47484;BMP280;54076;50.322;18.650;2022-08-01T03:26:09;98895.26;;;14.27
47484;BMP280;54076;50.322;18.650;2022-08-01T03:31:12;98892.35;;;14.56
47484;BMP280;54076;50.322;18.650;2022-08-01T03:36:15;98898.45;;;14.68
47484;BMP280;54076;50.322;18.650;2022-08-01T03:41:21;98899.15;;;14.60
47484;BMP280;54076;50.322;18.650;2022-08-01T03:46:32;98898.59;;;14.58
47484;BMP280;54076;50.322;18.650;2022-08-01T03:51:36;98899.72;;;14.54
47484;BMP280;54076;50.322;18.650;2022-08-01T03:56:38;98905.20;;;14.49
47484;BMP280;54076;50.322;18.650;2022-08-01T04:01:40;98917.64;;;14.52
47484;BMP280;54076;50.322;18.650;2022-08-01T04:06:41;98921.60;;;14.57
47484;BMP280;54076;50.322;18.650;2022-08-01T04:11:45;98920.21;;;14.63
47484;BMP280;54076;50.322;18.650;2022-08-01T04:16:46;98923.42;;;14.90
47484;BMP280;54076;50.322;18.650;2022-08-01T04:21:47;98924.84;;;14.92
47484;BMP280;54076;50.322;18.650;2022-08-01T04:26:50;98924.31;;;15.03
47484;BMP280;54076;50.322;18.650;2022-08-01T04:31:54;98920.59;;;15.04
47484;BMP280;54076;50.322;18.650;2022-08-01T04:36:57;98915.66;;;15.18
47484;BMP280;54076;50.322;18.650;2022-08-01T04:41:59;98915.56;;;15.32
47484;BMP280;54076;50.322;18.650;2022-08-01T04:47:02;98913.45;;;15.38
47484;BMP280;54076;50.322;18.650;2022-08-01T04:52:04;98916.58;;;15.48
47484;BMP280;54076;50.322;18.650;2022-08-01T04:57:06;98926.17;;;15.66
47484;BMP280;54076;50.322;18.650;2022-08-01T05:02:15;98921.00;;;15.77
47484;BMP280;54076;50.322;18.650;2022-08-01T05:07:16;98910.89;;;15.94
47484;BMP280;54076;50.322;18.650;2022-08-01T05:12:17;98907.16;;;16.10
47484;BMP280;54076;50.322;18.650;2022-08-01T05:17:18;98901.36;;;16.18
47484;BMP280;54076;50.322;18.650;2022-08-01T05:22:19;98892.99;;;16.38
47484;BMP280;54076;50.322;18.650;2022-08-01T05:27:20;98892.55;;;16.52
47484;BMP280;54076;50.322;18.650;2022-08-01T05:32:21;98892.83;;;16.74
47484;BMP280;54076;50.322;18.650;2022-08-01T05:37:22;98901.46;;;17.00
47484;BMP280;54076;50.322;18.650;2022-08-01T05:42:23;98905.66;;;17.13
47484;BMP280;54076;50.322;18.650;2022-08-01T05:47:23;98911.34;;;17.29
47484;BMP280;54076;50.322;18.650;2022-08-01T05:52:24;98912.02;;;17.62
47484;BMP280;54076;50.322;18.650;2022-08-01T05:57:25;98912.23;;;17.86
47484;BMP280;54076;50.322;18.650;2022-08-01T06:02:26;98913.52;;;17.87
47484;BMP280;54076;50.322;18.650;2022-08-01T06:07:28;98911.10;;;18.19
47484;BMP280;54076;50.322;18.650;2022-08-01T06:12:29;98912.97;;;18.55
47484;BMP280;54076;50.322;18.650;2022-08-01T06:17:33;98914.32;;;18.89
47484;BMP280;54076;50.322;18.650;2022-08-01T06:22:34;98909.02;;;19.30
47484;BMP280;54076;50.322;18.650;2022-08-01T06:27:35;98905.91;;;19.66
47484;BMP280;54076;50.322;18.650;2022-08-01T06:32:36;98907.41;;;20.18
47484;BMP280;54076;50.322;18.650;2022-08-01T06:37:37;98901.06;;;20.48
47484;BMP280;54076;50.322;18.650;2022-08-01T06:42:38;98900.16;;;20.46
47484;BMP280;54076;50.322;18.650;2022-08-01T06:47:41;98902.10;;;20.60
47484;BMP280;54076;50.322;18.650;2022-08-01T06:52:43;98903.06;;;20.65
47484;BMP280;54076;50.322;18.650;2022-08-01T06:57:52;98902.52;;;20.79
47484;BMP280;54076;50.322;18.650;2022-08-01T07:02:56;98897.54;;;20.80
47484;BMP280;54076;50.322;18.650;2022-08-01T07:07:59;98902.88;;;21.04
47484;BMP280;54076;50.322;18.650;2022-08-01T07:13:00;98902.64;;;21.11
47484;BMP280;54076;50.322;18.650;2022-08-01T07:18:01;98903.45;;;21.30
47484;BMP280;54076;50.322;18.650;2022-08-01T07:23:04;98892.70;;;21.52
47484;BMP280;54076;50.322;18.650;2022-08-01T07:28:05;98894.87;;;22.16
47484;BMP280;54076;50.322;18.650;2022-08-01T07:33:06;98894.14;;;22.12
47484;BMP280;54076;50.322;18.650;2022-08-01T07:38:07;98887.10;;;22.20
47484;BMP280;54076;50.322;18.650;2022-08-01T07:43:09;98889.23;;;22.19
47484;BMP280;54076;50.322;18.650;2022-08-01T07:48:10;98881.72;;;22.36
47484;BMP280;54076;50.322;18.650;2022-08-01T07:53:11;98878.41;;;22.52
47484;BMP280;54076;50.322;18.650;2022-08-01T07:58:12;98880.59;;;22.43
47484;BMP280;54076;50.322;18.650;2022-08-01T08:03:13;98885.21;;;22.64
47484;BMP280;54076;50.322;18.650;2022-08-01T08:08:14;98888.59;;;22.67
47484;BMP280;54076;50.322;18.650;2022-08-01T08:13:16;98884.33;;;22.73
47484;BMP280;54076;50.322;18.650;2022-08-01T08:18:17;98892.13;;;22.99
47484;BMP280;54076;50.322;18.650;2022-08-01T08:23:18;98894.03;;;23.03
47484;BMP280;54076;50.322;18.650;2022-08-01T08:28:38;98887.27;;;23.16
47484;BMP280;54076;50.322;18.650;2022-08-01T08:33:39;98896.48;;;23.27
47484;BMP280;54076;50.322;18.650;2022-08-01T08:38:40;98904.70;;;23.36
47484;BMP280;54076;50.322;18.650;2022-08-01T08:43:41;98906.21;;;23.02
47484;BMP280;54076;50.322;18.650;2022-08-01T08:48:42;98906.45;;;23.04
47484;BMP280;54076;50.322;18.650;2022-08-01T08:53:46;98908.91;;;23.09
47484;BMP280;54076;50.322;18.650;2022-08-01T08:58:47;98912.36;;;23.03
47484;BMP280;54076;50.322;18.650;2022-08-01T09:03:48;98913.29;;;22.95
47484;BMP280;54076;50.322;18.650;2022-08-01T09:08:49;98914.78;;;22.85
47484;BMP280;54076;50.322;18.650;2022-08-01T09:14:17;98923.61;;;22.93
47484;BMP280;54076;50.322;18.650;2022-08-01T09:19:24;98921.25;;;23.33
47484;BMP280;54076;50.322;18.650;2022-08-01T09:24:27;98920.70;;;23.32
47484;BMP280;54076;50.322;18.650;2022-08-01T09:29:31;98917.95;;;23.23
47484;BMP280;54076;50.322;18.650;2022-08-01T09:34:35;98921.39;;;23.45
47484;BMP280;54076;50.322;18.650;2022-08-01T09:39:37;98923.35;;;23.55
47484;BMP280;54076;50.322;18.650;2022-08-01T09:44:43;98920.70;;;23.65
47484;BMP280;54076;50.322;18.650;2022-08-01T09:49:45;98913.42;;;24.09
47484;BMP280;54076;50.322;18.650;2022-08-01T09:54:59;98914.60;;;24.28
47484;BMP280;54076;50.322;18.650;2022-08-01T10:00:02;98912.14;;;24.81
47484;BMP280;54076;50.322;18.650;2022-08-01T10:05:10;98911.45;;;24.75
47484;BMP280;54076;50.322;18.650;2022-08-01T10:10:15;98917.84;;;24.45
47484;BMP280;54076;50.322;18.650;2022-08-01T10:15:17;98915.45;;;24.71
47484;BMP280;54076;50.322;18.650;2022-08-01T10:20:22;98923.34;;;24.75
47484;BMP280;54076;50.322;18.650;2022-08-01T10:25:27;98924.62;;;24.69
47484;BMP280;54076;50.322;18.650;2022-08-01T10:30:29;98926.02;;;24.48
47484;BMP280;54076;50.322;18.650;2022-08-01T10:35:31;98930.03;;;24.22
47484;BMP280;54076;50.322;18.650;2022-08-01T10:40:32;98930.23;;;23.95
47484;BMP280;54076;50.322;18.650;2022-08-01T10:45:34;98932.20;;;23.79
47484;BMP280;54076;50.322;18.650;2022-08-01T10:50:47;98936.23;;;23.44
47484;BMP280;54076;50.322;18.650;2022-08-01T10:56:03;98937.52;;;23.19
47484;BMP280;54076;50.322;18.650;2022-08-01T11:06:20;98935.13;;;23.06
47484;BMP280;54076;50.322;18.650;2022-08-01T11:11:24;98933.41;;;23.26
47484;BMP280;54076;50.322;18.650;2022-08-01T11:16:32;98929.55;;;23.43
47484;BMP280;54076;50.322;18.650;2022-08-01T11:27:31;98923.32;;;23.80
47484;BMP280;54076;50.322;18.650;2022-08-01T11:32:33;98934.54;;;24.28
47484;BMP280;54076;50.322;18.650;2022-08-01T11:37:34;98935.39;;;24.87
47484;BMP280;54076;50.322;18.650;2022-08-01T11:42:35;98931.57;;;25.81
47484;BMP280;54076;50.322;18.650;2022-08-01T11:47:48;98927.19;;;25.86
47484;BMP280;54076;50.322;18.650;2022-08-01T11:52:57;98928.20;;;26.23
47484;BMP280;54076;50.322;18.650;2022-08-01T11:58:07;98921.04;;;26.79
47484;BMP280;54076;50.322;18.650;2022-08-01T12:03:08;98918.41;;;26.26
47484;BMP280;54076;50.322;18.650;2022-08-01T12:08:10;98910.30;;;26.11
47484;BMP280;54076;50.322;18.650;2022-08-01T12:13:11;98904.44;;;26.09
47484;BMP280;54076;50.322;18.650;2022-08-01T12:18:12;98913.36;;;26.67
47484;BMP280;54076;50.322;18.650;2022-08-01T12:23:15;98903.02;;;27.09
47484;BMP280;54076;50.322;18.650;2022-08-01T12:28:17;98900.94;;;27.70
47484;BMP280;54076;50.322;18.650;2022-08-01T12:33:20;98899.77;;;29.19
47484;BMP280;54076;50.322;18.650;2022-08-01T12:38:22;98893.77;;;29.35
47484;BMP280;54076;50.322;18.650;2022-08-01T12:43:25;98885.41;;;29.89
47484;BMP280;54076;50.322;18.650;2022-08-01T12:48:26;98886.06;;;28.90
47484;BMP280;54076;50.322;18.650;2022-08-01T12:53:33;98871.79;;;28.15
47484;BMP280;54076;50.322;18.650;2022-08-01T12:58:34;98887.42;;;28.86
47484;BMP280;54076;50.322;18.650;2022-08-01T13:03:36;98860.63;;;29.24
47484;BMP280;54076;50.322;18.650;2022-08-01T13:08:37;98864.72;;;28.11
47484;BMP280;54076;50.322;18.650;2022-08-01T13:13:51;98866.21;;;28.14
47484;BMP280;54076;50.322;18.650;2022-08-01T13:18:55;98865.42;;;27.56
47484;BMP280;54076;50.322;18.650;2022-08-01T13:24:12;98864.39;;;27.56
47484;BMP280;54076;50.322;18.650;2022-08-01T13:29:17;98864.86;;;27.14
47484;BMP280;54076;50.322;18.650;2022-08-01T13:34:29;98868.25;;;27.25
47484;BMP280;54076;50.322;18.650;2022-08-01T13:39:31;98871.03;;;26.83
47484;BMP280;54076;50.322;18.650;2022-08-01T13:44:42;98868.66;;;26.81
47484;BMP280;54076;50.322;18.650;2022-08-01T13:49:45;98860.60;;;27.14
47484;BMP280;54076;50.322;18.650;2022-08-01T13:54:46;98862.23;;;27.46
47484;BMP280;54076;50.322;18.650;2022-08-01T13:59:47;98860.47;;;27.62
47484;BMP280;54076;50.322;18.650;2022-08-01T14:04:48;98855.88;;;27.44
47484;BMP280;54076;50.322;18.650;2022-08-01T14:09:49;98853.02;;;27.33
47484;BMP280;54076;50.322;18.650;2022-08-01T14:14:50;98862.31;;;27.03
47484;BMP280;54076;50.322;18.650;2022-08-01T14:19:51;98864.50;;;27.02
47484;BMP280;54076;50.322;18.650;2022-08-01T14:24:52;98864.33;;;27.00
47484;BMP280;54076;50.322;18.650;2022-08-01T14:29:53;98869.96;;;26.95
47484;BMP280;54076;50.322;18.650;2022-08-01T14:34:57;98877.12;;;26.87
47484;BMP280;54076;50.322;18.650;2022-08-01T14:39:59;98870.33;;;27.00
47484;BMP280;54076;50.322;18.650;2022-08-01T14:45:01;98877.43;;;26.55
47484;BMP280;54076;50.322;18.650;2022-08-01T14:50:05;98882.71;;;26.27
47484;BMP280;54076;50.322;18.650;2022-08-01T14:55:08;98886.42;;;25.93
47484;BMP280;54076;50.322;18.650;2022-08-01T15:00:11;98891.00;;;25.79
47484;BMP280;54076;50.322;18.650;2022-08-01T15:05:13;98893.34;;;26.05
47484;BMP280;54076;50.322;18.650;2022-08-01T15:10:14;98898.67;;;26.02
47484;BMP280;54076;50.322;18.650;2022-08-01T15:15:16;98904.12;;;25.91
47484;BMP280;54076;50.322;18.650;2022-08-01T15:20:18;98905.93;;;26.48
47484;BMP280;54076;50.322;18.650;2022-08-01T15:25:19;98905.30;;;26.57
47484;BMP280;54076;50.322;18.650;2022-08-01T15:30:20;98910.47;;;26.80
47484;BMP280;54076;50.322;18.650;2022-08-01T15:35:21;98907.15;;;28.08
47484;BMP280;54076;50.322;18.650;2022-08-01T15:40:23;98902.64;;;28.47
47484;BMP280;54076;50.322;18.650;2022-08-01T15:45:24;98896.54;;;27.83
47484;BMP280;54076;50.322;18.650;2022-08-01T15:50:27;98895.92;;;26.86
47484;BMP280;54076;50.322;18.650;2022-08-01T15:55:28;98906.34;;;26.51
47484;BMP280;54076;50.322;18.650;2022-08-01T16:00:28;98905.31;;;26.53
47484;BMP280;54076;50.322;18.650;2022-08-01T16:05:29;98905.17;;;26.35
47484;BMP280;54076;50.322;18.650;2022-08-01T16:10:30;98910.74;;;28.46
47484;BMP280;54076;50.322;18.650;2022-08-01T16:15:32;98900.11;;;28.03
47484;BMP280;54076;50.322;18.650;2022-08-01T16:20:33;98900.34;;;26.76
47484;BMP280;54076;50.322;18.650;2022-08-01T16:25:35;98899.80;;;26.87
47484;BMP280;54076;50.322;18.650;2022-08-01T16:30:36;98900.64;;;26.72
47484;BMP280;54076;50.322;18.650;2022-08-01T16:35:39;98888.48;;;25.96
47484;BMP280;54076;50.322;18.650;2022-08-01T16:40:44;98887.33;;;25.73
47484;BMP280;54076;50.322;18.650;2022-08-01T16:45:47;98893.17;;;25.94
47484;BMP280;54076;50.322;18.650;2022-08-01T16:50:49;98899.17;;;25.73
47484;BMP280;54076;50.322;18.650;2022-08-01T16:55:50;98909.87;;;26.32
47484;BMP280;54076;50.322;18.650;2022-08-01T17:00:51;98912.89;;;29.02
47484;BMP280;54076;50.322;18.650;2022-08-01T17:05:53;98907.39;;;27.73
47484;BMP280;54076;50.322;18.650;2022-08-01T17:10:54;98912.87;;;27.55
47484;BMP280;54076;50.322;18.650;2022-08-01T17:15:55;98920.92;;;28.09
47484;BMP280;54076;50.322;18.650;2022-08-01T17:20:56;98911.23;;;30.15
47484;BMP280;54076;50.322;18.650;2022-08-01T17:25:57;98917.35;;;30.27
47484;BMP280;54076;50.322;18.650;2022-08-01T17:30:58;98922.16;;;29.14
47484;BMP280;54076;50.322;18.650;2022-08-01T17:35:59;98918.89;;;30.43
47484;BMP280;54076;50.322;18.650;2022-08-01T17:41:01;98922.23;;;30.34
47484;BMP280;54076;50.322;18.650;2022-08-01T17:46:02;98918.10;;;29.54
47484;BMP280;54076;50.322;18.650;2022-08-01T17:51:03;98919.38;;;28.23
47484;BMP280;54076;50.322;18.650;2022-08-01T17:56:04;98930.16;;;26.44
47484;BMP280;54076;50.322;18.650;2022-08-01T18:01:08;98943.69;;;25.51
47484;BMP280;54076;50.322;18.650;2022-08-01T18:06:11;98948.17;;;25.53
47484;BMP280;54076;50.322;18.650;2022-08-01T18:11:14;98957.20;;;25.02
47484;BMP280;54076;50.322;18.650;2022-08-01T18:16:15;98958.06;;;24.63
47484;BMP280;54076;50.322;18.650;2022-08-01T18:21:16;98964.00;;;24.18
47484;BMP280;54076;50.322;18.650;2022-08-01T18:26:19;98974.45;;;23.97
47484;BMP280;54076;50.322;18.650;2022-08-01T18:31:20;98984.00;;;23.77
47484;BMP280;54076;50.322;18.650;2022-08-01T18:36:22;98991.76;;;23.69
47484;BMP280;54076;50.322;18.650;2022-08-01T18:41:24;98998.67;;;23.43
47484;BMP280;54076;50.322;18.650;2022-08-01T18:46:25;99005.67;;;23.25
47484;BMP280;54076;50.322;18.650;2022-08-01T18:51:26;99010.52;;;23.26
47484;BMP280;54076;50.322;18.650;2022-08-01T18:56:28;99017.03;;;23.19
47484;BMP280;54076;50.322;18.650;2022-08-01T19:01:29;99027.80;;;23.05
47484;BMP280;54076;50.322;18.650;2022-08-01T19:06:30;99024.52;;;22.86
47484;BMP280;54076;50.322;18.650;2022-08-01T19:11:33;99031.58;;;22.88
47484;BMP280;54076;50.322;18.650;2022-08-01T19:16:34;99032.31;;;22.65
47484;BMP280;54076;50.322;18.650;2022-08-01T19:21:37;99031.02;;;22.61
47484;BMP280;54076;50.322;18.650;2022-08-01T19:26:39;99042.06;;;22.49
47484;BMP280;54076;50.322;18.650;2022-08-01T19:31:44;99048.94;;;22.27
47484;BMP280;54076;50.322;18.650;2022-08-01T19:36:48;99050.64;;;22.17
47484;BMP280;54076;50.322;18.650;2022-08-01T19:41:50;99066.98;;;21.91
47484;BMP280;54076;50.322;18.650;2022-08-01T19:46:52;99064.73;;;21.82
47484;BMP280;54076;50.322;18.650;2022-08-01T19:52:03;99071.73;;;21.83
47484;BMP280;54076;50.322;18.650;2022-08-01T19:57:06;99076.84;;;21.87
47484;BMP280;54076;50.322;18.650;2022-08-01T20:02:08;99089.59;;;21.70
47484;BMP280;54076;50.322;18.650;2022-08-01T20:07:10;99097.77;;;21.31
47484;BMP280;54076;50.322;18.650;2022-08-01T20:12:11;99103.72;;;21.17
47484;BMP280;54076;50.322;18.650;2022-08-01T20:17:12;99112.33;;;21.01
47484;BMP280;54076;50.322;18.650;2022-08-01T20:22:17;99116.91;;;21.07
47484;BMP280;54076;50.322;18.650;2022-08-01T20:27:23;99116.46;;;21.14
47484;BMP280;54076;50.322;18.650;2022-08-01T20:32:31;99111.60;;;21.04
47484;BMP280;54076;50.322;18.650;2022-08-01T20:37:36;99111.00;;;21.13
47484;BMP280;54076;50.322;18.650;2022-08-01T20:42:42;99110.88;;;21.08
47484;BMP280;54076;50.322;18.650;2022-08-01T20:47:44;99110.44;;;21.03
47484;BMP280;54076;50.322;18.650;2022-08-01T20:52:48;99120.15;;;20.97
47484;BMP280;54076;50.322;18.650;2022-08-01T20:57:51;99122.88;;;21.02
47484;BMP280;54076;50.322;18.650;2022-08-01T21:03:10;99114.48;;;20.95
47484;BMP280;54076;50.322;18.650;2022-08-01T21:08:22;99119.01;;;20.76
47484;BMP280;54076;50.322;18.650;2022-08-01T21:13:36;99109.74;;;20.84
47484;BMP280;54076;50.322;18.650;2022-08-01T21:19:09;99116.62;;;20.84
47484;BMP280;54076;50.322;18.650;2022-08-01T21:24:16;99124.39;;;20.80
47484;BMP280;54076;50.322;18.650;2022-08-01T21:29:19;99133.92;;;20.62
47484;BMP280;54076;50.322;18.650;2022-08-01T21:34:23;99136.55;;;20.64
47484;BMP280;54076;50.322;18.650;2022-08-01T21:39:24;99135.69;;;20.57
47484;BMP280;54076;50.322;18.650;2022-08-01T21:44:26;99134.42;;;20.60
47484;BMP280;54076;50.322;18.650;2022-08-01T21:49:28;99132.15;;;20.47
47484;BMP280;54076;50.322;18.650;2022-08-01T21:54:40;99139.27;;;20.50
47484;BMP280;54076;50.322;18.650;2022-08-01T22:00:12;99144.50;;;20.44
47484;BMP280;54076;50.322;18.650;2022-08-01T22:05:16;99149.89;;;20.41
47484;BMP280;54076;50.322;18.650;2022-08-01T22:10:19;99156.51;;;20.27
47484;BMP280;54076;50.322;18.650;2022-08-01T22:15:24;99159.13;;;20.15
47484;BMP280;54076;50.322;18.650;2022-08-01T22:20:27;99157.69;;;20.08
47484;BMP280;54076;50.322;18.650;2022-08-01T22:25:29;99158.21;;;19.97
47484;BMP280;54076;50.322;18.650;2022-08-01T22:30:36;99149.43;;;19.92
47484;BMP280;54076;50.322;18.650;2022-08-01T22:35:39;99150.59;;;19.75
47484;BMP280;54076;50.322;18.650;2022-08-01T22:41:05;99147.71;;;19.67
47484;BMP280;54076;50.322;18.650;2022-08-01T22:46:16;99150.30;;;19.51
47484;BMP280;54076;50.322;18.650;2022-08-01T22:56:53;99161.48;;;19.32
47484;BMP280;54076;50.322;18.650;2022-08-01T23:01:59;99166.52;;;19.27
47484;BMP280;54076;50.322;18.650;2022-08-01T23:07:05;99167.80;;;19.16
47484;BMP280;54076;50.322;18.650;2022-08-01T23:12:07;99162.98;;;19.14
47484;BMP280;54076;50.322;18.650;2022-08-01T23:17:12;99163.79;;;19.05
47484;BMP280;54076;50.322;18.650;2022-08-01T23:22:14;99156.85;;;19.07
47484;BMP280;54076;50.322;18.650;2022-08-01T23:27:15;99165.08;;;19.02
47484;BMP280;54076;50.322;18.650;2022-08-01T23:32:25;99168.40;;;18.96
47484;BMP280;54076;50.322;18.650;2022-08-01T23:37:26;99165.55;;;18.96
47484;BMP280;54076;50.322;18.650;2022-08-01T23:42:27;99167.85;;;18.87
47484;BMP280;54076;50.322;18.650;2022-08-01T23:47:28;99173.77;;;18.95
47484;BMP280;54076;50.322;18.650;2022-08-01T23:52:29;99170.44;;;18.97
47484;BMP280;54076;50.322;18.650;2022-08-01T23:57:30;99174.55;;;18.99
